createdAt,value
2018-03-30T00:00:01.333Z,3.86
2018-03-30T00:00:05.659Z,3.95
2018-03-30T00:00:10.004Z,3.99
2018-03-30T00:00:14.103Z,3.92
2018-03-30T00:00:18.320Z,3.98
2018-03-30T00:00:22.475Z,3.95
2018-03-30T00:00:26.355Z,3.89
2018-03-30T00:00:30.461Z,3.95
2018-03-30T00:00:34.344Z,3.95
2018-03-30T00:00:38.554Z,3.9
2018-03-30T00:00:42.879Z,3.9
2018-03-30T00:00:47.277Z,3.92
2018-03-30T00:00:51.756Z,3.88
2018-03-30T00:00:55.870Z,3.92
2018-03-30T00:01:00.184Z,3.88
2018-03-30T00:01:04.414Z,3.95
2018-03-30T00:01:08.517Z,3.92
2018-03-30T00:01:12.616Z,3.92
2018-03-30T00:01:16.291Z,3.9
2018-03-30T00:01:20.394Z,3.89
2018-03-30T00:01:24.706Z,3.89
2018-03-30T00:01:28.913Z,3.9
2018-03-30T00:01:32.909Z,3.89
2018-03-30T00:01:37.008Z,3.89
2018-03-30T00:01:40.898Z,3.99
2018-03-30T00:01:45.001Z,3.96
2018-03-30T00:01:49.104Z,3.93
2018-03-30T00:01:53.102Z,3.88
2018-03-30T00:01:57.213Z,3.9
2018-03-30T00:02:01.208Z,3.9
2018-03-30T00:02:05.403Z,3.89
2018-03-30T00:02:09.506Z,3.88
2018-03-30T00:02:13.616Z,3.92
2018-03-30T00:02:17.733Z,3.92
2018-03-30T00:02:21.832Z,3.89
2018-03-30T00:02:26.049Z,3.92
2018-03-30T00:02:30.043Z,3.92
2018-03-30T00:02:34.153Z,3.92
2018-03-30T00:02:38.515Z,3.92
2018-03-30T00:02:42.760Z,3.88
2018-03-30T00:02:46.861Z,3.93
2018-03-30T00:02:51.075Z,3.92
2018-03-30T00:02:55.066Z,3.93
2018-03-30T00:02:59.276Z,3.89
2018-03-30T00:03:03.425Z,3.88
2018-03-30T00:03:07.524Z,3.92
2018-03-30T00:03:11.517Z,3.92
2018-03-30T00:03:15.734Z,3.9
2018-03-30T00:03:19.618Z,3.92
2018-03-30T00:03:23.604Z,3.92
2018-03-30T00:03:27.716Z,3.95
2018-03-30T00:03:31.596Z,3.93
2018-03-30T00:03:35.694Z,3.96
2018-03-30T00:03:39.685Z,3.88
2018-03-30T00:03:43.897Z,3.93
2018-03-30T00:03:47.995Z,3.93
2018-03-30T00:03:52.097Z,3.92
2018-03-30T00:03:56.416Z,3.92
2018-03-30T00:04:00.202Z,3.92
2018-03-30T00:04:04.316Z,3.93
2018-03-30T00:04:08.526Z,3.92
2018-03-30T00:04:12.631Z,3.93
2018-03-30T00:04:16.841Z,3.82
2018-03-30T00:04:20.939Z,3.86
2018-03-30T00:04:25.266Z,3.86
2018-03-30T00:04:29.370Z,3.92
2018-03-30T00:04:33.580Z,3.88
2018-03-30T00:04:37.906Z,3.9
2018-03-30T00:04:42.119Z,3.95
2018-03-30T00:04:46.224Z,3.86
2018-03-30T00:04:50.214Z,3.88
2018-03-30T00:04:53.990Z,3.89
2018-03-30T00:04:57.881Z,3.92
2018-03-30T00:05:01.978Z,3.89
2018-03-30T00:05:06.357Z,3.9
2018-03-30T00:05:10.347Z,3.92
2018-03-30T00:05:14.560Z,3.92
2018-03-30T00:05:18.443Z,3.96
2018-03-30T00:05:22.437Z,3.95
2018-03-30T00:05:26.646Z,3.9
2018-03-30T00:05:30.743Z,3.95
2018-03-30T00:05:34.848Z,3.88
2018-03-30T00:05:39.058Z,3.93
2018-03-30T00:05:43.047Z,3.89
2018-03-30T00:05:47.041Z,3.92
2018-03-30T00:05:51.245Z,3.89
2018-03-30T00:05:55.450Z,3.88
2018-03-30T00:05:59.333Z,3.89
2018-03-30T00:06:03.735Z,3.9
2018-03-30T00:06:07.845Z,3.96
2018-03-30T00:06:12.058Z,3.95
2018-03-30T00:06:16.055Z,3.93
2018-03-30T00:06:20.261Z,3.82
2018-03-30T00:06:24.361Z,3.88
2018-03-30T00:06:28.350Z,3.9
2018-03-30T00:06:32.245Z,3.9
2018-03-30T00:06:36.570Z,3.84
2018-03-30T00:06:40.789Z,3.88
2018-03-30T00:06:45.098Z,3.89
2018-03-30T00:06:49.308Z,3.88
2018-03-30T00:06:53.406Z,3.86
2018-03-30T00:06:57.509Z,3.96
2018-03-30T00:07:01.859Z,3.92
2018-03-30T00:07:06.073Z,3.88
2018-03-30T00:07:10.171Z,3.9
2018-03-30T00:07:14.165Z,3.88
2018-03-30T00:07:18.272Z,3.9
2018-03-30T00:07:22.481Z,3.88
2018-03-30T00:07:26.374Z,3.92
2018-03-30T00:07:30.366Z,3.84
2018-03-30T00:07:34.361Z,3.84
2018-03-30T00:07:38.351Z,3.88
2018-03-30T00:07:42.235Z,3.89
2018-03-30T00:07:46.235Z,3.9
2018-03-30T00:07:50.448Z,3.88
2018-03-30T00:07:54.660Z,3.95
2018-03-30T00:07:58.770Z,3.92
2018-03-30T00:08:02.972Z,3.86
2018-03-30T00:08:07.083Z,3.9
2018-03-30T00:08:11.074Z,3.93
2018-03-30T00:08:15.173Z,3.9
2018-03-30T00:08:19.057Z,3.92
2018-03-30T00:08:22.940Z,3.86
2018-03-30T00:08:27.181Z,3.86
2018-03-30T00:08:31.172Z,3.88
2018-03-30T00:08:35.269Z,3.89
2018-03-30T00:08:39.367Z,3.93
2018-03-30T00:08:43.462Z,3.93
2018-03-30T00:08:47.454Z,3.92
2018-03-30T00:08:51.772Z,3.93
2018-03-30T00:08:55.873Z,3.89
2018-03-30T00:09:00.080Z,3.9
2018-03-30T00:09:04.180Z,3.84
2018-03-30T00:09:08.278Z,3.92
2018-03-30T00:09:12.484Z,3.86
2018-03-30T00:09:16.691Z,3.84
2018-03-30T00:09:20.746Z,3.9
2018-03-30T00:09:24.627Z,3.89
2018-03-30T00:09:28.668Z,3.9
2018-03-30T00:09:32.664Z,3.89
2018-03-30T00:09:36.769Z,3.86
2018-03-30T00:09:40.867Z,3.86
2018-03-30T00:09:45.086Z,3.86
2018-03-30T00:09:49.182Z,3.84
2018-03-30T00:09:53.292Z,3.88
2018-03-30T00:09:57.393Z,3.9
2018-03-30T00:10:01.410Z,3.84
2018-03-30T00:10:05.655Z,3.9
2018-03-30T00:10:09.653Z,3.82
2018-03-30T00:10:13.754Z,3.9
2018-03-30T00:10:17.852Z,3.84
2018-03-30T00:10:21.948Z,3.78
2018-03-30T00:10:26.274Z,3.88
2018-03-30T00:10:30.381Z,3.9
2018-03-30T00:10:34.609Z,3.89
2018-03-30T00:10:38.713Z,3.75
2018-03-30T00:10:42.927Z,3.92
2018-03-30T00:10:47.026Z,3.9
2018-03-30T00:10:51.025Z,3.77
2018-03-30T00:10:55.235Z,3.89
2018-03-30T00:10:59.447Z,3.89
2018-03-30T00:11:03.961Z,3.8
2018-03-30T00:11:07.956Z,3.89
2018-03-30T00:11:12.272Z,3.89
2018-03-30T00:11:16.270Z,3.89
2018-03-30T00:11:20.260Z,3.89
2018-03-30T00:11:24.356Z,3.92
2018-03-30T00:11:28.352Z,3.86
2018-03-30T00:11:32.240Z,3.8
2018-03-30T00:11:36.344Z,3.82
2018-03-30T00:11:40.445Z,3.8
2018-03-30T00:11:44.335Z,3.82
2018-03-30T00:11:48.553Z,3.8
2018-03-30T00:11:52.653Z,3.8
2018-03-30T00:11:56.977Z,3.78
2018-03-30T00:12:01.197Z,3.89
2018-03-30T00:12:05.078Z,3.84
2018-03-30T00:12:08.967Z,3.8
2018-03-30T00:12:12.961Z,3.8
2018-03-30T00:12:17.057Z,3.81
2018-03-30T00:12:21.382Z,3.88
2018-03-30T00:12:25.368Z,3.84
2018-03-30T00:12:29.472Z,3.9
2018-03-30T00:12:33.812Z,3.86
2018-03-30T00:12:37.913Z,3.78
2018-03-30T00:12:42.177Z,3.77
2018-03-30T00:12:46.171Z,3.84
2018-03-30T00:12:50.183Z,3.89
2018-03-30T00:12:54.385Z,3.77
2018-03-30T00:12:58.275Z,3.81
2018-03-30T00:13:02.594Z,3.78
2018-03-30T00:13:06.480Z,3.84
2018-03-30T00:13:10.471Z,3.86
2018-03-30T00:13:14.686Z,3.84
2018-03-30T00:13:18.897Z,3.82
2018-03-30T00:13:22.999Z,3.78
2018-03-30T00:13:26.988Z,3.86
2018-03-30T00:13:31.087Z,3.77
2018-03-30T00:13:35.190Z,3.81
2018-03-30T00:13:39.298Z,3.81
2018-03-30T00:13:43.548Z,3.8
2018-03-30T00:13:47.756Z,3.82
2018-03-30T00:13:51.862Z,3.78
2018-03-30T00:13:55.957Z,3.8
2018-03-30T00:13:59.949Z,3.78
2018-03-30T00:14:04.280Z,3.81
2018-03-30T00:14:08.147Z,3.8
2018-03-30T00:14:12.477Z,3.77
2018-03-30T00:14:16.470Z,3.75
2018-03-30T00:14:20.673Z,3.77
2018-03-30T00:14:24.669Z,3.81
2018-03-30T00:14:28.445Z,3.77
2018-03-30T00:14:32.434Z,3.77
2018-03-30T00:14:36.426Z,3.84
2018-03-30T00:14:40.530Z,3.77
2018-03-30T00:14:44.628Z,3.8
2018-03-30T00:14:48.839Z,3.78
2018-03-30T00:14:52.939Z,3.81
2018-03-30T00:14:57.040Z,3.72
2018-03-30T00:15:01.257Z,3.78
2018-03-30T00:15:05.251Z,3.82
2018-03-30T00:15:09.565Z,3.89
2018-03-30T00:15:13.879Z,3.78
2018-03-30T00:15:17.760Z,3.8
2018-03-30T00:15:21.864Z,3.82
2018-03-30T00:15:25.750Z,3.77
2018-03-30T00:15:29.969Z,3.77
2018-03-30T00:15:34.071Z,3.86
2018-03-30T00:15:38.064Z,3.75
2018-03-30T00:15:42.065Z,3.82
2018-03-30T00:15:46.384Z,3.77
2018-03-30T00:15:50.595Z,3.77
2018-03-30T00:15:54.911Z,3.68
2018-03-30T00:15:59.125Z,3.78
2018-03-30T00:16:03.228Z,3.75
2018-03-30T00:16:07.218Z,3.78
2018-03-30T00:16:11.101Z,3.71
2018-03-30T00:16:15.308Z,3.64
2018-03-30T00:16:19.351Z,3.81
2018-03-30T00:16:23.676Z,3.8
2018-03-30T00:16:27.786Z,3.67
2018-03-30T00:16:31.828Z,3.84
2018-03-30T00:16:36.041Z,3.8
2018-03-30T00:16:40.251Z,3.68
2018-03-30T00:16:44.349Z,3.68
2018-03-30T00:16:48.466Z,3.67
2018-03-30T00:16:52.783Z,3.75
2018-03-30T00:16:56.879Z,3.75
2018-03-30T00:17:00.978Z,3.72
2018-03-30T00:17:05.074Z,3.77
2018-03-30T00:17:09.075Z,3.71
2018-03-30T00:17:13.079Z,3.7
2018-03-30T00:17:17.077Z,3.71
2018-03-30T00:17:21.073Z,3.74
2018-03-30T00:17:25.067Z,3.78
2018-03-30T00:17:29.165Z,3.7
2018-03-30T00:17:33.441Z,3.71
2018-03-30T00:17:37.756Z,3.68
2018-03-30T00:17:41.853Z,3.74
2018-03-30T00:17:45.841Z,3.74
2018-03-30T00:17:49.840Z,3.75
2018-03-30T00:17:54.162Z,3.64
2018-03-30T00:17:58.261Z,3.74
2018-03-30T00:18:02.303Z,3.67
2018-03-30T00:18:06.302Z,3.71
2018-03-30T00:18:10.400Z,3.67
2018-03-30T00:18:14.722Z,3.72
2018-03-30T00:18:18.826Z,3.7
2018-03-30T00:18:22.931Z,3.63
2018-03-30T00:18:26.932Z,3.7
2018-03-30T00:18:31.046Z,3.7
2018-03-30T00:18:35.149Z,3.72
2018-03-30T00:18:39.358Z,3.72
2018-03-30T00:18:43.355Z,3.72
2018-03-30T00:18:47.351Z,3.67
2018-03-30T00:18:51.464Z,3.72
2018-03-30T00:18:55.717Z,3.74
2018-03-30T00:18:59.815Z,3.72
2018-03-30T00:19:03.913Z,3.7
2018-03-30T00:19:08.012Z,3.67
2018-03-30T00:19:12.214Z,3.71
2018-03-30T00:19:16.526Z,3.7
2018-03-30T00:19:20.523Z,3.68
2018-03-30T00:19:24.621Z,3.68
2018-03-30T00:19:28.735Z,3.72
2018-03-30T00:19:32.848Z,3.7
2018-03-30T00:19:36.836Z,3.68
2018-03-30T00:19:40.732Z,3.7
2018-03-30T00:19:44.724Z,3.67
2018-03-30T00:19:48.604Z,3.64
2018-03-30T00:19:52.849Z,3.68
2018-03-30T00:19:57.061Z,3.71
2018-03-30T00:20:00.952Z,3.74
2018-03-30T00:20:05.045Z,3.63
2018-03-30T00:20:09.142Z,3.68
2018-03-30T00:20:13.244Z,3.68
2018-03-30T00:20:17.456Z,3.64
2018-03-30T00:20:21.558Z,3.71
2018-03-30T00:20:25.438Z,3.64
2018-03-30T00:20:29.645Z,3.68
2018-03-30T00:20:33.638Z,3.71
2018-03-30T00:20:37.531Z,3.67
2018-03-30T00:20:41.636Z,3.74
2018-03-30T00:20:45.734Z,3.68
2018-03-30T00:20:49.733Z,3.67
2018-03-30T00:20:53.831Z,3.71
2018-03-30T00:20:58.040Z,3.67
2018-03-30T00:21:02.439Z,3.63
2018-03-30T00:21:06.434Z,3.7
2018-03-30T00:21:10.533Z,3.7
2018-03-30T00:21:14.636Z,3.6
2018-03-30T00:21:18.843Z,3.7
2018-03-30T00:21:22.951Z,3.71
2018-03-30T00:21:27.157Z,3.7
2018-03-30T00:21:31.249Z,3.7
2018-03-30T00:21:35.458Z,3.7
2018-03-30T00:21:39.344Z,3.68
2018-03-30T00:21:43.447Z,3.64
2018-03-30T00:21:47.691Z,3.77
2018-03-30T00:21:51.800Z,3.6
2018-03-30T00:21:55.904Z,3.64
2018-03-30T00:22:00.159Z,3.6
2018-03-30T00:22:04.370Z,3.72
2018-03-30T00:22:08.478Z,3.68
2018-03-30T00:22:12.473Z,3.57
2018-03-30T00:22:16.678Z,3.71
2018-03-30T00:22:21.000Z,3.59
2018-03-30T00:22:25.380Z,3.59
2018-03-30T00:22:29.602Z,3.59
2018-03-30T00:22:33.697Z,3.72
2018-03-30T00:22:37.801Z,3.64
2018-03-30T00:22:41.901Z,3.71
2018-03-30T00:22:46.005Z,3.68
2018-03-30T00:22:50.227Z,3.59
2018-03-30T00:22:54.433Z,3.57
2018-03-30T00:22:58.547Z,3.62
2018-03-30T00:23:02.637Z,3.64
2018-03-30T00:23:06.519Z,3.57
2018-03-30T00:23:10.735Z,3.59
2018-03-30T00:23:14.730Z,3.72
2018-03-30T00:23:18.850Z,3.6
2018-03-30T00:23:22.840Z,3.63
2018-03-30T00:23:26.937Z,3.74
2018-03-30T00:23:31.138Z,3.62
2018-03-30T00:23:35.348Z,3.63
2018-03-30T00:23:39.670Z,3.63
2018-03-30T00:23:43.661Z,3.62
2018-03-30T00:23:47.799Z,3.67
2018-03-30T00:23:51.796Z,3.59
2018-03-30T00:23:56.007Z,3.57
2018-03-30T00:23:59.997Z,3.64
2018-03-30T00:24:04.456Z,3.6
2018-03-30T00:24:08.450Z,3.64
2018-03-30T00:24:12.773Z,3.62
2018-03-30T00:24:16.980Z,3.57
2018-03-30T00:24:21.081Z,3.64
2018-03-30T00:24:25.186Z,3.62
2018-03-30T00:24:29.284Z,3.62
2018-03-30T00:24:33.607Z,3.59
2018-03-30T00:24:37.707Z,3.59
2018-03-30T00:24:41.704Z,3.57
2018-03-30T00:24:45.804Z,3.63
2018-03-30T00:24:49.798Z,3.62
2018-03-30T00:24:53.787Z,3.56
2018-03-30T00:24:57.668Z,3.56
2018-03-30T00:25:01.853Z,3.62
2018-03-30T00:25:06.174Z,3.6
2018-03-30T00:25:10.389Z,3.62
2018-03-30T00:25:14.382Z,3.54
2018-03-30T00:25:18.595Z,3.63
2018-03-30T00:25:22.701Z,3.56
2018-03-30T00:25:26.587Z,3.59
2018-03-30T00:25:30.478Z,3.6
2018-03-30T00:25:34.475Z,3.62
2018-03-30T00:25:38.795Z,3.68
2018-03-30T00:25:42.674Z,3.62
2018-03-30T00:25:46.667Z,3.64
2018-03-30T00:25:50.769Z,3.63
2018-03-30T00:25:54.866Z,3.57
2018-03-30T00:25:59.085Z,3.71
2018-03-30T00:26:03.294Z,3.62
2018-03-30T00:26:07.398Z,3.57
2018-03-30T00:26:11.622Z,3.56
2018-03-30T00:26:15.726Z,3.57
2018-03-30T00:26:19.607Z,3.62
2018-03-30T00:26:23.811Z,3.6
2018-03-30T00:26:28.029Z,3.57
2018-03-30T00:26:32.129Z,3.6
2018-03-30T00:26:36.227Z,3.68
2018-03-30T00:26:40.219Z,3.67
2018-03-30T00:26:44.429Z,3.67
2018-03-30T00:26:48.635Z,3.64
2018-03-30T00:26:52.631Z,3.6
2018-03-30T00:26:56.743Z,3.64
2018-03-30T00:27:00.840Z,3.57
2018-03-30T00:27:05.258Z,3.72
2018-03-30T00:27:09.355Z,3.68
2018-03-30T00:27:13.456Z,3.64
2018-03-30T00:27:17.558Z,3.57
2018-03-30T00:27:21.770Z,3.62
2018-03-30T00:27:26.008Z,3.63
2018-03-30T00:27:30.006Z,3.59
2018-03-30T00:27:34.332Z,3.7
2018-03-30T00:27:38.652Z,3.6
2018-03-30T00:27:42.754Z,3.62
2018-03-30T00:27:47.066Z,3.62
2018-03-30T00:27:51.290Z,3.6
2018-03-30T00:27:55.492Z,3.63
2018-03-30T00:27:59.590Z,3.59
2018-03-30T00:28:03.902Z,3.62
2018-03-30T00:28:07.679Z,3.63
2018-03-30T00:28:11.904Z,3.67
2018-03-30T00:28:16.008Z,3.62
2018-03-30T00:28:19.998Z,3.62
2018-03-30T00:28:24.213Z,3.62
2018-03-30T00:28:28.323Z,3.62
2018-03-30T00:28:32.104Z,3.63
2018-03-30T00:28:36.259Z,3.57
2018-03-30T00:28:40.361Z,3.63
2018-03-30T00:28:44.461Z,3.64
2018-03-30T00:28:48.554Z,3.59
2018-03-30T00:28:52.656Z,3.52
2018-03-30T00:28:56.645Z,3.68
2018-03-30T00:29:00.849Z,3.67
2018-03-30T00:29:05.418Z,3.53
2018-03-30T00:29:09.626Z,3.57
2018-03-30T00:29:13.837Z,3.57
2018-03-30T00:29:18.156Z,3.63
2018-03-30T00:29:22.260Z,3.57
2018-03-30T00:29:26.302Z,3.59
2018-03-30T00:29:30.428Z,3.68
2018-03-30T00:29:34.947Z,3.62
2018-03-30T00:29:39.153Z,3.52
2018-03-30T00:29:43.367Z,3.59
2018-03-30T00:29:47.372Z,3.53
2018-03-30T00:29:51.479Z,3.53
2018-03-30T00:29:55.688Z,3.53
2018-03-30T00:29:59.903Z,3.6
2018-03-30T00:30:04.203Z,3.62
2018-03-30T00:30:08.410Z,3.53
2018-03-30T00:30:12.511Z,3.59
2018-03-30T00:30:16.625Z,3.53
2018-03-30T00:30:20.636Z,3.57
2018-03-30T00:30:24.739Z,3.57
2018-03-30T00:30:28.730Z,3.59
2018-03-30T00:30:32.834Z,3.49
2018-03-30T00:30:36.715Z,3.6
2018-03-30T00:30:40.817Z,3.53
2018-03-30T00:30:44.918Z,3.54
2018-03-30T00:30:49.025Z,3.62
2018-03-30T00:30:53.246Z,3.54
2018-03-30T00:30:57.409Z,3.53
2018-03-30T00:31:01.915Z,3.52
2018-03-30T00:31:06.016Z,3.63
2018-03-30T00:31:10.225Z,3.56
2018-03-30T00:31:14.537Z,3.57
2018-03-30T00:31:18.756Z,3.63
2018-03-30T00:31:23.071Z,3.54
2018-03-30T00:31:27.277Z,3.59
2018-03-30T00:31:31.273Z,3.57
2018-03-30T00:31:35.481Z,3.57
2018-03-30T00:31:39.471Z,3.52
2018-03-30T00:31:43.461Z,3.62
2018-03-30T00:31:47.782Z,3.53
2018-03-30T00:31:51.883Z,3.44
2018-03-30T00:31:55.986Z,3.5
2018-03-30T00:32:00.086Z,3.45
2018-03-30T00:32:04.334Z,3.54
2018-03-30T00:32:08.322Z,3.63
2018-03-30T00:32:12.427Z,3.56
2018-03-30T00:32:16.630Z,3.42
2018-03-30T00:32:20.732Z,3.52
2018-03-30T00:32:24.941Z,3.57
2018-03-30T00:32:29.042Z,3.54
2018-03-30T00:32:33.146Z,3.52
2018-03-30T00:32:37.251Z,3.52
2018-03-30T00:32:41.294Z,3.49
2018-03-30T00:32:45.286Z,3.54
2018-03-30T00:32:49.274Z,3.49
2018-03-30T00:32:53.484Z,3.44
2018-03-30T00:32:57.805Z,3.54
2018-03-30T00:33:01.904Z,3.41
2018-03-30T00:33:06.123Z,3.45
2018-03-30T00:33:10.337Z,3.59
2018-03-30T00:33:14.441Z,3.54
2018-03-30T00:33:18.540Z,3.42
2018-03-30T00:33:22.685Z,3.44
2018-03-30T00:33:27.025Z,3.45
2018-03-30T00:33:31.163Z,3.49
2018-03-30T00:33:35.373Z,3.46
2018-03-30T00:33:39.382Z,3.53
2018-03-30T00:33:43.589Z,3.52
2018-03-30T00:33:47.689Z,3.46
2018-03-30T00:33:51.793Z,3.53
2018-03-30T00:33:55.894Z,3.52
2018-03-30T00:34:00.106Z,3.5
2018-03-30T00:34:04.201Z,3.54
2018-03-30T00:34:08.309Z,3.52
2018-03-30T00:34:12.567Z,3.49
2018-03-30T00:34:16.558Z,3.57
2018-03-30T00:34:20.776Z,3.52
2018-03-30T00:34:25.120Z,3.46
2018-03-30T00:34:29.113Z,3.44
2018-03-30T00:34:33.213Z,3.54
2018-03-30T00:34:37.206Z,3.53
2018-03-30T00:34:41.304Z,3.52
2018-03-30T00:34:45.402Z,3.5
2018-03-30T00:34:49.498Z,3.49
2018-03-30T00:34:53.491Z,3.46
2018-03-30T00:34:57.599Z,3.49
2018-03-30T00:35:01.588Z,3.49
2018-03-30T00:35:05.883Z,3.54
2018-03-30T00:35:10.002Z,3.5
2018-03-30T00:35:14.238Z,3.46
2018-03-30T00:35:18.338Z,3.53
2018-03-30T00:35:22.552Z,3.53
2018-03-30T00:35:26.769Z,3.52
2018-03-30T00:35:30.656Z,3.52
2018-03-30T00:35:34.752Z,3.52
2018-03-30T00:35:38.855Z,3.49
2018-03-30T00:35:42.845Z,3.49
2018-03-30T00:35:46.842Z,3.44
2018-03-30T00:35:50.959Z,3.45
2018-03-30T00:35:55.173Z,3.57
2018-03-30T00:35:58.958Z,3.5
2018-03-30T00:36:03.256Z,3.52
2018-03-30T00:36:07.140Z,3.44
2018-03-30T00:36:11.131Z,3.46
2018-03-30T00:36:15.451Z,3.46
2018-03-30T00:36:19.439Z,3.53
2018-03-30T00:36:23.438Z,3.45
2018-03-30T00:36:27.538Z,3.44
2018-03-30T00:36:31.527Z,3.52
2018-03-30T00:36:35.625Z,3.5
2018-03-30T00:36:39.772Z,3.46
2018-03-30T00:36:43.768Z,3.46
2018-03-30T00:36:47.978Z,3.45
2018-03-30T00:36:52.077Z,3.49
2018-03-30T00:36:56.286Z,3.5
2018-03-30T00:37:00.500Z,3.46
2018-03-30T00:37:04.652Z,3.44
2018-03-30T00:37:08.641Z,3.46
2018-03-30T00:37:12.739Z,3.5
2018-03-30T00:37:17.064Z,3.44
2018-03-30T00:37:21.215Z,3.52
2018-03-30T00:37:25.315Z,3.46
2018-03-30T00:37:29.635Z,3.42
2018-03-30T00:37:33.631Z,3.42
2018-03-30T00:37:37.731Z,3.45
2018-03-30T00:37:41.830Z,3.53
2018-03-30T00:37:45.709Z,3.44
2018-03-30T00:37:49.589Z,3.46
2018-03-30T00:37:53.584Z,3.49
2018-03-30T00:37:57.467Z,3.45
2018-03-30T00:38:01.573Z,3.45
2018-03-30T00:38:05.457Z,3.42
2018-03-30T00:38:09.458Z,3.5
2018-03-30T00:38:13.450Z,3.49
2018-03-30T00:38:17.446Z,3.49
2018-03-30T00:38:21.680Z,3.46
2018-03-30T00:38:25.880Z,3.42
2018-03-30T00:38:29.761Z,3.39
2018-03-30T00:38:33.754Z,3.52
2018-03-30T00:38:37.750Z,3.44
2018-03-30T00:38:41.973Z,3.42
2018-03-30T00:38:45.964Z,3.45
2018-03-30T00:38:50.172Z,3.42
2018-03-30T00:38:53.946Z,3.5
2018-03-30T00:38:58.159Z,3.42
2018-03-30T00:39:02.509Z,3.42
2018-03-30T00:39:06.608Z,3.44
2018-03-30T00:39:10.390Z,3.41
2018-03-30T00:39:14.501Z,3.44
2018-03-30T00:39:18.493Z,3.46
2018-03-30T00:39:22.595Z,3.42
2018-03-30T00:39:26.745Z,3.41
2018-03-30T00:39:30.736Z,3.39
2018-03-30T00:39:35.123Z,3.41
2018-03-30T00:39:39.387Z,3.41
2018-03-30T00:39:43.406Z,3.39
2018-03-30T00:39:47.503Z,3.44
2018-03-30T00:39:51.612Z,3.44
2018-03-30T00:39:55.881Z,3.42
2018-03-30T00:40:00.189Z,3.41
2018-03-30T00:40:04.300Z,3.45
2018-03-30T00:40:08.186Z,3.39
2018-03-30T00:40:12.177Z,3.42
2018-03-30T00:40:16.286Z,3.45
2018-03-30T00:40:20.493Z,3.46
2018-03-30T00:40:24.808Z,3.42
2018-03-30T00:40:28.906Z,3.5
2018-03-30T00:40:33.006Z,3.46
2018-03-30T00:40:36.781Z,3.44
2018-03-30T00:40:40.887Z,3.44
2018-03-30T00:40:45.093Z,3.44
2018-03-30T00:40:49.196Z,3.46
2018-03-30T00:40:53.402Z,3.37
2018-03-30T00:40:57.740Z,3.46
2018-03-30T00:41:01.528Z,3.33
2018-03-30T00:41:06.049Z,3.35
2018-03-30T00:41:10.038Z,3.46
2018-03-30T00:41:14.134Z,3.26
2018-03-30T00:41:18.344Z,3.28
2018-03-30T00:41:22.439Z,3.39
2018-03-30T00:41:26.646Z,3.46
2018-03-30T00:41:30.747Z,3.42
2018-03-30T00:41:34.951Z,3.41
2018-03-30T00:41:39.051Z,3.37
2018-03-30T00:41:43.053Z,3.46
2018-03-30T00:41:46.935Z,3.37
2018-03-30T00:41:51.044Z,3.42
2018-03-30T00:41:55.254Z,3.35
2018-03-30T00:41:59.460Z,3.31
2018-03-30T00:42:03.775Z,3.35
2018-03-30T00:42:08.091Z,3.28
2018-03-30T00:42:12.296Z,3.28
2018-03-30T00:42:16.394Z,3.3
2018-03-30T00:42:20.707Z,3.31
2018-03-30T00:42:24.595Z,3.28
2018-03-30T00:42:28.488Z,3.28
2018-03-30T00:42:32.717Z,3.34
2018-03-30T00:42:36.926Z,3.28
2018-03-30T00:42:41.021Z,3.31
2018-03-30T00:42:45.169Z,3.31
2018-03-30T00:42:49.271Z,3.33
2018-03-30T00:42:53.373Z,3.35
2018-03-30T00:42:57.611Z,3.34
2018-03-30T00:43:01.598Z,3.28
2018-03-30T00:43:05.589Z,3.41
2018-03-30T00:43:09.695Z,3.33
2018-03-30T00:43:13.796Z,3.28
2018-03-30T00:43:17.898Z,3.34
2018-03-30T00:43:22.213Z,3.37
2018-03-30T00:43:26.321Z,3.33
2018-03-30T00:43:30.419Z,3.42
2018-03-30T00:43:34.544Z,3.26
2018-03-30T00:43:38.529Z,3.28
2018-03-30T00:43:42.859Z,3.26
2018-03-30T00:43:46.857Z,3.31
2018-03-30T00:43:50.957Z,3.31
2018-03-30T00:43:55.160Z,3.25
2018-03-30T00:43:59.261Z,3.25
2018-03-30T00:44:03.777Z,3.28
2018-03-30T00:44:07.988Z,3.34
2018-03-30T00:44:12.082Z,3.34
2018-03-30T00:44:16.217Z,3.28
2018-03-30T00:44:20.210Z,3.31
2018-03-30T00:44:24.316Z,3.31
2018-03-30T00:44:28.430Z,3.28
2018-03-30T00:44:32.309Z,3.25
2018-03-30T00:44:36.311Z,3.25
2018-03-30T00:44:40.299Z,3.31
2018-03-30T00:44:44.397Z,3.26
2018-03-30T00:44:48.491Z,3.34
2018-03-30T00:44:52.489Z,3.37
2018-03-30T00:44:56.593Z,3.35
2018-03-30T00:45:00.820Z,3.28
2018-03-30T00:45:05.072Z,3.25
2018-03-30T00:45:09.276Z,3.3
2018-03-30T00:45:13.375Z,3.25
2018-03-30T00:45:17.479Z,3.35
2018-03-30T00:45:21.482Z,3.34
2018-03-30T00:45:25.695Z,3.26
2018-03-30T00:45:29.829Z,3.25
2018-03-30T00:45:34.040Z,3.31
2018-03-30T00:45:37.923Z,3.3
2018-03-30T00:45:41.913Z,3.31
2018-03-30T00:45:46.126Z,3.22
2018-03-30T00:45:50.115Z,3.25
2018-03-30T00:45:54.211Z,3.37
2018-03-30T00:45:58.307Z,3.3
2018-03-30T00:46:02.650Z,3.3
2018-03-30T00:46:06.754Z,3.26
2018-03-30T00:46:10.965Z,3.34
2018-03-30T00:46:14.960Z,3.28
2018-03-30T00:46:19.066Z,3.34
2018-03-30T00:46:23.071Z,3.26
2018-03-30T00:46:26.953Z,3.31
2018-03-30T00:46:31.053Z,3.28
2018-03-30T00:46:35.368Z,3.31
2018-03-30T00:46:39.472Z,3.25
2018-03-30T00:46:43.483Z,3.31
2018-03-30T00:46:47.586Z,3.31
2018-03-30T00:46:51.909Z,3.23
2018-03-30T00:46:56.009Z,3.26
2018-03-30T00:47:00.115Z,3.3
2018-03-30T00:47:04.003Z,3.22
2018-03-30T00:47:08.151Z,3.26
2018-03-30T00:47:12.156Z,3.31
2018-03-30T00:47:16.264Z,3.28
2018-03-30T00:47:20.199Z,3.31
2018-03-30T00:47:24.190Z,3.26
2018-03-30T00:47:27.972Z,3.25
2018-03-30T00:47:32.104Z,3.31
2018-03-30T00:47:36.321Z,3.28
2018-03-30T00:47:40.416Z,3.25
2018-03-30T00:47:44.514Z,3.26
2018-03-30T00:47:48.726Z,3.3
2018-03-30T00:47:52.715Z,3.25
2018-03-30T00:47:56.927Z,3.25
2018-03-30T00:48:00.811Z,3.33
2018-03-30T00:48:05.155Z,3.3
2018-03-30T00:48:09.254Z,3.25
2018-03-30T00:48:13.240Z,3.3
2018-03-30T00:48:17.453Z,3.31
2018-03-30T00:48:21.555Z,3.25
2018-03-30T00:48:25.882Z,3.31
2018-03-30T00:48:30.090Z,3.28
2018-03-30T00:48:34.192Z,3.3
2018-03-30T00:48:38.292Z,3.31
2018-03-30T00:48:42.282Z,3.22
2018-03-30T00:48:46.271Z,3.31
2018-03-30T00:48:50.485Z,3.26
2018-03-30T00:48:54.689Z,3.23
2018-03-30T00:48:58.903Z,3.26
2018-03-30T00:49:02.787Z,3.33
2018-03-30T00:49:06.683Z,3.31
2018-03-30T00:49:10.783Z,3.22
2018-03-30T00:49:14.989Z,3.3
2018-03-30T00:49:18.873Z,3.26
2018-03-30T00:49:22.981Z,3.26
2018-03-30T00:49:26.865Z,3.23
2018-03-30T00:49:30.965Z,3.25
2018-03-30T00:49:35.079Z,3.22
2018-03-30T00:49:39.287Z,3.3
2018-03-30T00:49:43.395Z,3.26
2018-03-30T00:49:47.491Z,3.23
2018-03-30T00:49:51.802Z,3.25
2018-03-30T00:49:56.013Z,3.3
2018-03-30T00:50:00.007Z,3.25
2018-03-30T00:50:04.010Z,3.23
2018-03-30T00:50:08.002Z,3.22
2018-03-30T00:50:12.324Z,3.28
2018-03-30T00:50:16.428Z,3.31
2018-03-30T00:50:20.426Z,3.3
2018-03-30T00:50:24.744Z,3.2
2018-03-30T00:50:28.848Z,3.3
2018-03-30T00:50:32.838Z,3.23
2018-03-30T00:50:36.938Z,3.3
2018-03-30T00:50:41.038Z,3.17
2018-03-30T00:50:44.930Z,3.22
2018-03-30T00:50:49.029Z,3.2
2018-03-30T00:50:53.019Z,3.23
2018-03-30T00:50:57.126Z,3.3
2018-03-30T00:51:01.330Z,3.28
2018-03-30T00:51:05.470Z,3.22
2018-03-30T00:51:09.675Z,3.26
2018-03-30T00:51:13.666Z,3.25
2018-03-30T00:51:17.769Z,3.31
2018-03-30T00:51:21.871Z,3.23
2018-03-30T00:51:25.974Z,3.19
2018-03-30T00:51:30.079Z,3.23
2018-03-30T00:51:34.285Z,3.28
2018-03-30T00:51:38.386Z,3.26
2018-03-30T00:51:42.480Z,3.28
2018-03-30T00:51:46.366Z,3.25
2018-03-30T00:51:50.140Z,3.26
2018-03-30T00:51:54.238Z,3.2
2018-03-30T00:51:58.559Z,3.25
2018-03-30T00:52:02.559Z,3.3
2018-03-30T00:52:06.680Z,3.31
2018-03-30T00:52:10.895Z,3.22
2018-03-30T00:52:15.151Z,3.22
2018-03-30T00:52:19.358Z,3.23
2018-03-30T00:52:23.348Z,3.28
2018-03-30T00:52:27.561Z,3.23
2018-03-30T00:52:31.665Z,3.19
2018-03-30T00:52:35.662Z,3.25
2018-03-30T00:52:39.667Z,3.22
2018-03-30T00:52:43.657Z,3.26
2018-03-30T00:52:47.651Z,3.22
2018-03-30T00:52:51.860Z,3.3
2018-03-30T00:52:55.850Z,3.26
2018-03-30T00:52:59.735Z,3.25
2018-03-30T00:53:04.154Z,3.26
2018-03-30T00:53:08.258Z,3.23
2018-03-30T00:53:12.358Z,3.23
2018-03-30T00:53:16.565Z,3.16
2018-03-30T00:53:20.780Z,3.22
2018-03-30T00:53:24.992Z,3.25
2018-03-30T00:53:29.217Z,3.22
2018-03-30T00:53:33.446Z,3.2
2018-03-30T00:53:37.649Z,3.23
2018-03-30T00:53:41.753Z,3.25
2018-03-30T00:53:45.743Z,3.25
2018-03-30T00:53:49.519Z,3.2
2018-03-30T00:53:53.613Z,3.23
2018-03-30T00:53:57.755Z,3.25
2018-03-30T00:54:01.651Z,3.17
2018-03-30T00:54:05.859Z,3.23
2018-03-30T00:54:10.176Z,3.22
2018-03-30T00:54:14.276Z,3.23
2018-03-30T00:54:18.269Z,3.22
2018-03-30T00:54:22.366Z,3.19
2018-03-30T00:54:26.258Z,3.26
2018-03-30T00:54:30.357Z,3.22
2018-03-30T00:54:34.469Z,3.23
2018-03-30T00:54:38.459Z,3.17
2018-03-30T00:54:42.454Z,3.25
2018-03-30T00:54:46.565Z,3.23
2018-03-30T00:54:50.555Z,3.22
2018-03-30T00:54:54.659Z,3.23
2018-03-30T00:54:58.548Z,3.23